Time;durP1;ratioP1;P1;durP2;ratioP2;P2;SDS_P1;SDS_P2;PMS_P1;PMS_P2;Temp;Humidity;BMP_temperature;BMP_pressure;BME280_temperature;BME280_humidity;BME280_pressure;Samples;Min_cycle;Max_cycle;Signal;HPM_P1;HPM_P2
2021/12/09 00:01:08;;;;;;;2.78;1.40;;;;;;;17.25;42.86;101185.56;4192298;28;20411;-56
2021/12/09 00:03:12;;;;;;;1.30;1.15;;;;;;;17.34;43.20;101201.75;4181195;28;20553;-55
2021/12/09 00:05:18;;;;;;;1.50;1.40;;;;;;;17.35;43.27;101195.13;4183002;28;20024;-55
2021/12/09 00:07:20;;;;;;;1.77;1.23;;;;;;;17.38;42.94;101194.63;4194621;28;20121;-58
2021/12/09 00:09:23;;;;;;;1.52;1.27;;;;;;;17.24;43.31;101181.13;4196868;28;20037;-56
2021/12/09 00:11:25;;;;;;;2.00;1.40;;;;;;;17.17;43.13;101165.75;4197436;28;20106;-56
2021/12/09 00:13:28;;;;;;;2.22;1.25;;;;;;;17.39;42.94;101210.97;4197565;28;20040;-57
2021/12/09 00:15:34;;;;;;;1.23;1.13;;;;;;;17.41;43.32;101210.69;4190978;28;20049;-55
2021/12/09 00:17:36;;;;;;;1.40;1.25;;;;;;;17.42;43.02;101223.47;4191720;28;20074;-57
2021/12/09 00:19:38;;;;;;;2.13;1.40;;;;;;;17.21;42.74;101192.66;4197220;28;20062;-57
2021/12/09 00:21:39;;;;;;;2.05;1.45;;;;;;;17.39;43.11;101223.97;4196995;28;20098;-57
2021/12/09 00:23:41;;;;;;;2.28;1.40;;;;;;;17.41;42.93;101233.69;4195706;28;20173;-57
2021/12/09 00:25:43;;;;;;;2.53;1.70;;;;;;;17.44;43.08;101243.41;4197349;28;20082;-57
2021/12/09 00:27:44;;;;;;;1.95;1.20;;;;;;;17.43;43.06;101247.28;4194499;28;20036;-57
2021/12/09 00:29:46;;;;;;;1.58;1.42;;;;;;;17.46;42.59;101257.84;4187707;28;20045;-55
2021/12/09 00:31:48;;;;;;;1.77;1.20;;;;;;;17.41;42.76;101249.44;4195677;28;20541;-58
2021/12/09 00:33:50;;;;;;;1.42;1.27;;;;;;;17.46;42.64;101258.69;4197513;28;20057;-58
2021/12/09 00:35:57;;;;;;;1.85;1.30;;;;;;;17.47;42.94;101260.34;4196742;28;20045;-55
2021/12/09 00:38:06;;;;;;;2.90;1.40;;;;;;;17.48;42.82;101272.25;4195711;28;20365;-57
2021/12/09 00:40:09;;;;;;;1.88;1.40;;;;;;;17.47;42.77;101270.59;4196956;28;20097;-55
2021/12/09 00:42:11;;;;;;;2.75;1.38;;;;;;;17.49;42.62;101274.75;4197189;28;20032;-56
2021/12/09 00:44:12;;;;;;;4.82;1.67;;;;;;;17.42;42.76;101262.19;4196994;28;20029;-56
2021/12/09 00:46:17;;;;;;;2.40;1.23;;;;;;;17.49;42.98;101277.53;4196926;28;20115;-56
2021/12/09 00:48:19;;;;;;;1.65;1.42;;;;;;;17.33;42.66;101244.34;4186069;28;20075;-56
2021/12/09 00:50:21;;;;;;;2.83;1.20;;;;;;;17.51;42.87;101274.53;4193407;28;20093;-54
2021/12/09 00:52:24;;;;;;;3.72;1.90;;;;;;;17.52;42.51;101278.97;4197425;28;20037;-56
2021/12/09 00:54:26;;;;;;;4.03;1.88;;;;;;;17.33;42.79;101249.88;4197100;28;20185;-57
2021/12/09 00:56:27;;;;;;;3.33;1.45;;;;;;;17.51;42.61;101283.66;4196519;28;20056;-56
2021/12/09 00:58:29;;;;;;;4.10;1.52;;;;;;;17.51;42.89;101280.06;4181910;28;20095;-57
2021/12/09 01:00:31;;;;;;;2.85;1.65;;;;;;;17.53;42.49;101291.72;4180706;28;20033;-57
2021/12/09 01:02:32;;;;;;;1.88;1.35;;;;;;;17.44;43.04;101265.53;4187995;28;20032;-55
2021/12/09 01:04:38;;;;;;;2.53;1.40;;;;;;;17.52;42.72;101284.50;4197110;28;20079;-56
2021/12/09 01:06:39;;;;;;;5.00;1.60;;;;;;;17.53;42.95;101291.72;4196770;28;20365;-59
2021/12/09 01:08:42;;;;;;;2.63;1.67;;;;;;;17.54;42.86;101282.31;4193617;28;20106;-56
2021/12/09 01:10:44;;;;;;;2.28;1.50;;;;;;;17.54;43.13;101290.63;4191256;28;20098;-56
2021/12/09 01:12:46;;;;;;;4.38;1.30;;;;;;;17.51;42.70;101291.13;4187022;28;20434;-54
2021/12/09 01:14:47;;;;;;;3.03;1.60;;;;;;;17.53;42.77;101305.53;4197096;28;20394;-56
2021/12/09 01:16:48;;;;;;;1.98;1.60;;;;;;;17.50;43.16;101292.19;4196609;28;20032;-55
2021/12/09 01:18:50;;;;;;;5.30;1.30;;;;;;;17.55;42.89;101300.63;4198966;28;20028;-57
2021/12/09 01:20:52;;;;;;;3.53;1.40;;;;;;;17.56;43.23;101310.59;4199852;28;20795;-57
2021/12/09 01:22:56;;;;;;;3.08;1.40;;;;;;;17.54;42.83;101307.22;4192946;28;20125;-54
2021/12/09 01:24:58;;;;;;;1.75;1.33;;;;;;;17.46;43.21;101300.19;4191065;28;20137;-55
2021/12/09 01:27:03;;;;;;;1.75;1.50;;;;;;;17.55;42.99;101325.53;4199383;28;20032;-55
2021/12/09 01:29:14;;;;;;;1.58;1.30;;;;;;;17.57;42.96;101326.09;4186020;28;20426;-55
2021/12/09 01:31:25;;;;;;;3.15;1.60;;;;;;;17.53;43.25;101316.63;4191872;28;20041;-53
2021/12/09 01:33:28;;;;;;;1.92;1.40;;;;;;;17.56;43.05;101327.19;4182887;28;20033;-56
2021/12/09 01:35:33;;;;;;;1.85;1.30;;;;;;;17.57;43.28;101325.25;4190681;28;20036;-54
2021/12/09 01:37:36;;;;;;;2.53;1.65;;;;;;;17.56;43.20;101329.97;4194575;28;20049;-53
2021/12/09 01:39:37;;;;;;;3.17;1.63;;;;;;;17.54;43.17;101338.50;4198766;28;20032;-57
2021/12/09 01:41:38;;;;;;;2.28;1.63;;;;;;;17.59;42.81;101337.75;4193263;28;20488;-58
2021/12/09 01:43:43;;;;;;;3.85;1.30;;;;;;;17.50;43.08;101330.94;4199426;28;20495;-57
2021/12/09 01:45:48;;;;;;;2.55;1.83;;;;;;;17.59;43.11;101331.38;4198001;28;20032;-57
2021/12/09 01:47:49;;;;;;;3.30;1.50;;;;;;;17.58;43.25;101338.84;4199124;28;20032;-58
2021/12/09 01:49:51;;;;;;;4.38;1.88;;;;;;;17.44;42.93;101309.81;4199010;28;20025;-56
2021/12/09 01:51:55;;;;;;;3.22;1.65;;;;;;;17.48;42.81;101322.91;4193475;28;20036;-57
2021/12/09 01:53:57;;;;;;;3.88;1.40;;;;;;;17.59;42.90;101334.97;4197115;28;20033;-57
2021/12/09 01:56:04;;;;;;;2.72;1.70;;;;;;;17.58;42.81;101327.78;4195259;28;20529;-56
2021/12/09 01:58:06;;;;;;;3.10;1.75;;;;;;;17.56;42.79;101341.03;4183797;28;20066;-57
2021/12/09 02:00:14;;;;;;;4.95;1.73;;;;;;;17.46;42.88;101336.16;4183075;28;20044;-58
2021/12/09 02:02:16;;;;;;;2.58;1.38;;;;;;;17.48;42.96;101327.59;4182881;28;20029;-56
2021/12/09 02:04:17;;;;;;;3.17;1.52;;;;;;;17.59;43.00;101353.50;4193268;28;20032;-56
2021/12/09 02:06:20;;;;;;;3.22;1.90;;;;;;;17.57;43.03;101348.25;4198315;28;20094;-58
2021/12/09 02:08:22;;;;;;;4.88;1.80;;;;;;;17.42;43.51;101317.53;4190485;28;20025;-55
2021/12/09 02:10:26;;;;;;;6.03;2.00;;;;;;;17.60;44.04;101345.00;4182400;28;20090;-57
2021/12/09 02:12:28;;;;;;;5.20;2.05;;;;;;;17.55;44.62;101347.66;4182541;28;20170;-57
2021/12/09 02:14:30;;;;;;;3.80;1.85;;;;;;;17.61;45.15;101349.44;4194017;28;20033;-56
2021/12/09 02:16:32;;;;;;;7.07;2.45;;;;;;;17.62;45.47;101356.63;4197712;28;20441;-57
2021/12/09 02:18:34;;;;;;;6.38;2.03;;;;;;;17.59;46.24;101362.66;4198558;28;20405;-55
2021/12/09 02:20:37;;;;;;;5.28;2.00;;;;;;;17.60;46.63;101361.59;4198485;28;20379;-57
2021/12/09 02:22:38;;;;;;;4.03;1.83;;;;;;;17.62;47.54;101364.94;4197559;28;20079;-56
2021/12/09 02:24:41;;;;;;;5.80;1.88;;;;;;;17.65;47.64;101367.22;4199109;28;20040;-56
2021/12/09 02:26:49;;;;;;;5.45;2.58;;;;;;;17.64;48.24;101379.38;4199174;28;20044;-56
2021/12/09 02:28:52;;;;;;;4.22;2.45;;;;;;;17.65;48.21;101361.69;4198587;28;20037;-57
2021/12/09 02:30:54;;;;;;;5.57;2.17;;;;;;;17.65;48.84;101367.22;4197993;28;20037;-56
2021/12/09 02:32:55;;;;;;;6.15;2.30;;;;;;;17.66;48.76;101363.34;4198613;28;20371;-57
2021/12/09 02:34:57;;;;;;;8.68;2.17;;;;;;;17.66;49.24;101360.59;4198565;28;20422;-57
2021/12/09 02:36:58;;;;;;;3.58;2.10;;;;;;;17.64;49.53;101365.53;4193102;28;20094;-57
2021/12/09 02:38:59;;;;;;;6.15;2.08;;;;;;;17.68;49.56;101382.47;4181874;28;20037;-56
2021/12/09 02:41:02;;;;;;;5.70;2.22;;;;;;;17.66;49.73;101385.50;4182192;28;20114;-57
2021/12/09 02:43:08;;;;;;;6.78;2.35;;;;;;;17.64;50.07;101382.16;4181999;28;20040;-58
2021/12/09 02:45:11;;;;;;;5.53;2.03;;;;;;;17.67;50.18;101381.63;4181982;28;20446;-57
2021/12/09 02:47:12;;;;;;;4.15;2.30;;;;;;;17.66;50.85;101374.41;4196460;28;20124;-57
2021/12/09 02:49:17;;;;;;;5.53;2.33;;;;;;;17.65;51.06;101392.13;4198587;28;20424;-56
2021/12/09 02:51:19;;;;;;;5.60;2.28;;;;;;;17.67;51.01;101403.78;4198383;28;20452;-59
2021/12/09 02:53:23;;;;;;;7.70;2.60;;;;;;;17.66;51.29;101404.03;4199046;28;20099;-56
2021/12/09 02:55:24;;;;;;;4.15;2.40;;;;;;;17.59;51.02;101387.56;4197814;28;20476;-57
2021/12/09 02:57:26;;;;;;;6.93;2.83;;;;;;;17.62;51.32;101408.38;4197995;28;20044;-57
2021/12/09 02:59:28;;;;;;;4.97;2.22;;;;;;;17.69;51.63;101428.47;4198063;28;20041;-59
2021/12/09 03:01:33;;;;;;;6.57;2.08;;;;;;;17.68;51.45;101437.81;4198139;28;20070;-56
2021/12/09 03:03:35;;;;;;;6.70;2.28;;;;;;;17.68;51.45;101454.44;4180975;28;20052;-57
2021/12/09 03:05:39;;;;;;;5.72;2.83;;;;;;;17.68;51.20;101454.44;4181484;28;20094;-56
2021/12/09 03:07:42;;;;;;;2.70;2.03;;;;;;;17.66;51.59;101463.00;4181474;28;20041;-56
2021/12/09 03:09:49;;;;;;;4.75;2.42;;;;;;;17.66;51.70;101463.00;4181702;28;20399;-59
2021/12/09 03:11:54;;;;;;;2.60;2.10;;;;;;;17.66;51.53;101462.16;4181815;28;20041;-57
2021/12/09 03:13:57;;;;;;;9.18;2.40;;;;;;;17.60;51.73;101446.53;4188837;28;20045;-55
2021/12/09 03:15:59;;;;;;;4.45;2.42;;;;;;;17.64;51.67;101465.19;4197897;28;20037;-58
2021/12/09 03:18:01;;;;;;;4.90;2.25;;;;;;;17.62;51.78;101475.63;4197664;28;20045;-56
2021/12/09 03:20:02;;;;;;;7.82;2.58;;;;;;;17.46;51.82;101457.06;4197800;28;20090;-57
2021/12/09 03:22:04;;;;;;;2.92;2.22;;;;;;;17.63;52.15;101488.38;4196838;28;20110;-58
2021/12/09 03:24:12;;;;;;;4.38;2.38;;;;;;;17.62;52.11;101492.25;4197964;28;20045;-57
2021/12/09 03:26:14;;;;;;;6.00;2.30;;;;;;;17.62;52.33;101499.69;4198088;28;20064;-60
2021/12/09 03:28:16;;;;;;;3.88;2.40;;;;;;;17.62;52.25;101483.09;4197668;28;20040;-55
2021/12/09 03:30:20;;;;;;;4.80;2.67;;;;;;;17.61;52.04;101487.81;4197198;28;20459;-59
2021/12/09 03:32:23;;;;;;;5.72;2.75;;;;;;;17.61;52.21;101493.34;4196767;28;20036;-56
2021/12/09 03:34:28;;;;;;;3.15;2.15;;;;;;;17.56;51.95;101486.84;4195569;28;20058;-58
2021/12/09 03:36:33;;;;;;;4.13;2.22;;;;;;;17.61;51.57;101504.41;4197427;28;20097;-57
2021/12/09 03:38:35;;;;;;;5.00;2.22;;;;;;;17.61;51.68;101515.47;4196247;28;20133;-56
2021/12/09 03:40:37;;;;;;;4.28;2.17;;;;;;;17.61;51.09;101507.16;4197453;28;20032;-59
2021/12/09 03:42:38;;;;;;;3.83;2.05;;;;;;;17.58;51.13;101504.88;4197691;28;20071;-55
2021/12/09 03:44:40;;;;;;;2.78;2.00;;;;;;;17.59;51.39;101500.19;4198119;28;20070;-57
2021/12/09 03:46:42;;;;;;;4.05;2.20;;;;;;;17.54;51.33;101487.91;4197650;28;20037;-56
2021/12/09 03:48:44;;;;;;;4.72;3.05;;;;;;;17.57;51.26;101489.38;4197624;28;20037;-55
2021/12/09 03:50:45;;;;;;;2.63;2.20;;;;;;;17.56;50.78;101479.41;4197649;28;20032;-55
2021/12/09 03:52:47;;;;;;;3.63;1.90;;;;;;;17.54;50.95;101498.16;4196998;28;20070;-58
2021/12/09 03:54:49;;;;;;;5.53;2.30;;;;;;;17.57;50.55;101508.75;4196311;28;20094;-58
2021/12/09 03:56:51;;;;;;;5.60;2.08;;;;;;;17.54;50.40;101517.53;4196663;28;20048;-57
2021/12/09 03:58:52;;;;;;;2.78;2.10;;;;;;;17.56;50.32;101523.66;4198129;28;20157;-58
2021/12/09 04:00:54;;;;;;;3.38;1.90;;;;;;;17.07;49.94;101436.56;4190415;28;20044;-58
2021/12/09 04:02:57;;;;;;;4.75;2.50;;;;;;;17.56;50.02;101512.59;4197321;28;20037;-58
2021/12/09 04:04:58;;;;;;;3.55;2.30;;;;;;;17.53;49.50;101510.31;4197452;28;20032;-57
2021/12/09 04:07:00;;;;;;;4.13;2.03;;;;;;;17.54;49.51;101515.59;4195456;28;20481;-59
2021/12/09 04:09:04;;;;;;;3.80;2.42;;;;;;;17.50;49.62;101513.56;4197798;28;20485;-55
2021/12/09 04:11:06;;;;;;;4.63;2.42;;;;;;;17.26;49.29;101485.09;4197946;28;20048;-58
2021/12/09 04:13:08;;;;;;;4.05;2.10;;;;;;;17.52;49.41;101523.31;4197296;28;20059;-59
2021/12/09 04:15:10;;;;;;;3.60;2.33;;;;;;;17.50;48.69;101514.44;4197544;28;20045;-56
2021/12/09 04:17:11;;;;;;;5.10;2.50;;;;;;;17.50;48.61;101513.56;4196957;28;20040;-57
2021/12/09 04:19:13;;;;;;;3.72;2.45;;;;;;;17.53;48.92;101524.16;4197160;28;20070;-59
2021/12/09 04:21:14;;;;;;;2.28;2.00;;;;;;;17.52;48.83;101528.00;4197158;28;20040;-55
2021/12/09 04:23:16;;;;;;;4.22;2.35;;;;;;;17.52;48.86;101544.59;4196783;28;20549;-55
2021/12/09 04:25:20;;;;;;;2.88;2.00;;;;;;;17.51;48.49;101531.88;4196628;28;20085;-57
2021/12/09 04:27:23;;;;;;;4.22;1.92;;;;;;;17.52;48.50;101544.59;4196675;28;20070;-53
2021/12/09 04:29:24;;;;;;;3.10;2.03;;;;;;;17.51;48.10;101543.78;4196574;28;20040;-57
2021/12/09 04:31:27;;;;;;;3.40;2.03;;;;;;;17.51;48.19;101542.94;4196805;28;20487;-56
2021/12/09 04:33:29;;;;;;;4.38;2.10;;;;;;;17.51;48.20;101548.47;4186640;28;20075;-57
2021/12/09 04:35:31;;;;;;;8.70;2.30;;;;;;;17.46;47.81;101543.66;4193763;28;20090;-58
2021/12/09 04:37:32;;;;;;;3.55;2.05;;;;;;;17.32;48.01;101522.00;4196867;28;20093;-55
2021/12/09 04:39:34;;;;;;;4.53;2.20;;;;;;;17.40;47.50;101541.00;4195427;28;20040;-57
2021/12/09 04:41:38;;;;;;;2.80;2.03;;;;;;;17.41;47.74;101553.75;4197015;28;20517;-58
2021/12/09 04:43:40;;;;;;;2.13;1.85;;;;;;;17.48;47.20;101568.31;4197105;28;20036;-57
2021/12/09 04:45:41;;;;;;;2.33;1.70;;;;;;;17.48;47.71;101579.38;4195691;28;20446;-56
2021/12/09 04:47:43;;;;;;;2.92;2.20;;;;;;;17.47;47.20;101586.84;4197108;28;20391;-55
2021/12/09 04:49:44;;;;;;;2.45;1.90;;;;;;;17.47;47.04;101580.47;4196210;28;20040;-54
2021/12/09 04:51:46;;;;;;;3.83;1.98;;;;;;;17.41;47.21;101570.34;4195322;28;20099;-56
2021/12/09 04:53:51;;;;;;;2.85;2.10;;;;;;;17.42;46.78;101577.59;4198291;28;20082;-56
2021/12/09 04:55:52;;;;;;;2.60;1.90;;;;;;;17.44;46.96;101597.53;4198757;28;20044;-55
2021/12/09 04:57:54;;;;;;;2.42;1.73;;;;;;;17.47;46.80;101591.53;4199286;28;20373;-57
2021/12/09 04:59:58;;;;;;;4.10;1.85;;;;;;;17.37;46.93;101574.72;4200614;28;20094;-56
2021/12/09 05:01:59;;;;;;;3.20;1.98;;;;;;;17.37;46.79;101571.94;4200149;28;20044;-59
2021/12/09 05:04:02;;;;;;;2.60;1.77;;;;;;;17.39;46.73;101584.44;4199954;28;20052;-56
2021/12/09 05:06:04;;;;;;;3.28;1.80;;;;;;;17.30;46.76;101573.97;4200093;28;20111;-57
2021/12/09 05:08:09;;;;;;;3.72;2.10;;;;;;;17.42;46.74;101602.50;4199708;28;20044;-55
2021/12/09 05:10:11;;;;;;;4.22;1.90;;;;;;;17.44;46.53;101592.84;4199828;28;20032;-58
2021/12/09 05:12:13;;;;;;;3.47;2.00;;;;;;;17.44;46.10;101589.25;4200024;28;20040;-59
2021/12/09 05:14:17;;;;;;;2.42;1.85;;;;;;;17.42;46.62;101588.66;4199985;28;20036;-57
2021/12/09 05:16:18;;;;;;;2.80;2.00;;;;;;;17.41;46.14;101589.72;4200024;28;20056;-58
2021/12/09 05:18:21;;;;;;;2.38;1.50;;;;;;;17.42;45.98;101599.72;4199485;28;20036;-56
2021/12/09 05:20:22;;;;;;;2.80;1.80;;;;;;;17.23;46.02;101563.06;4200260;28;20362;-58
2021/12/09 05:22:24;;;;;;;3.17;1.80;;;;;;;17.42;46.10;101602.50;4200018;28;20075;-56
2021/12/09 05:24:25;;;;;;;3.97;2.30;;;;;;;17.39;46.04;101603.81;4199105;28;20040;-57
2021/12/09 05:26:32;;;;;;;3.33;1.77;;;;;;;17.40;45.81;101601.88;4198910;28;20036;-58
2021/12/09 05:28:36;;;;;;;3.15;1.88;;;;;;;17.40;45.82;101612.94;4201397;28;20048;-58
2021/12/09 05:32:07;;;;;;;3.20;1.77;;;;;;;17.40;45.81;101602.72;4199448;28;20094;-59
2021/12/09 05:32:59;;;;;;;3.63;2.03;;;;;;;17.38;46.02;101606.81;4199248;28;20102;-54
2021/12/09 05:35:01;;;;;;;2.35;1.83;;;;;;;17.39;45.59;101608.50;4199133;28;20070;-57
2021/12/09 05:37:07;;;;;;;2.25;1.92;;;;;;;17.38;45.60;101615.13;4199265;28;20442;-56
2021/12/09 05:39:14;;;;;;;4.00;1.83;;;;;;;17.37;45.75;101602.38;4199018;28;20048;-57
2021/12/09 05:41:15;;;;;;;4.85;2.10;;;;;;;17.33;45.41;101601.16;4199588;28;20028;-59
2021/12/09 05:43:17;;;;;;;2.83;1.85;;;;;;;17.37;45.56;101624.50;4198577;28;20021;-57
2021/12/09 05:45:18;;;;;;;3.50;2.03;;;;;;;17.34;45.60;101636.88;4199537;28;20044;-56
2021/12/09 05:47:20;;;;;;;2.45;1.60;;;;;;;17.24;45.56;101618.13;4199369;28;20121;-55
2021/12/09 05:49:21;;;;;;;2.40;1.80;;;;;;;17.24;45.59;101620.88;4199652;28;20044;-56
2021/12/09 05:51:24;;;;;;;2.28;1.38;;;;;;;17.33;45.50;101635.22;4199353;28;20037;-56
2021/12/09 05:53:25;;;;;;;4.43;1.67;;;;;;;17.14;45.57;101586.63;4183888;28;20090;-56
2021/12/09 05:55:27;;;;;;;2.67;1.80;;;;;;;17.28;45.13;101619.34;4198806;28;20094;-56
2021/12/09 05:57:28;;;;;;;3.70;1.80;;;;;;;17.30;45.54;101634.84;4197523;28;20040;-56
2021/12/09 05:59:30;;;;;;;2.25;1.67;;;;;;;17.30;45.36;101629.31;4198957;28;20028;-56
2021/12/09 06:01:31;;;;;;;2.83;1.90;;;;;;;17.30;45.05;101643.97;4195345;28;20036;-56
2021/12/09 06:03:33;;;;;;;2.20;1.58;;;;;;;17.28;45.00;101638.69;4198949;28;20036;-58
2021/12/09 06:05:35;;;;;;;1.95;1.45;;;;;;;17.27;45.22;101637.00;4198034;28;20070;-57
2021/12/09 06:07:39;;;;;;;2.67;1.92;;;;;;;17.26;45.06;101646.38;4198650;28;20044;-57
2021/12/09 06:09:41;;;;;;;2.35;1.70;;;;;;;17.25;44.99;101655.75;4197420;28;20025;-56
2021/12/09 06:11:49;;;;;;;2.55;1.70;;;;;;;17.24;45.13;101659.63;4182433;28;20067;-57
2021/12/09 06:13:52;;;;;;;1.98;1.67;;;;;;;17.26;44.86;101667.66;4182477;28;20029;-56
2021/12/09 06:15:53;;;;;;;2.85;1.65;;;;;;;17.27;44.74;101674.88;4181987;28;20107;-54
2021/12/09 06:17:55;;;;;;;4.45;1.65;;;;;;;17.26;44.71;101670.44;4192165;28;20463;-57
2021/12/09 06:19:56;;;;;;;2.25;2.03;;;;;;;17.26;44.60;101687.03;4198168;28;20553;-56
2021/12/09 06:21:58;;;;;;;2.22;1.63;;;;;;;17.21;44.85;101690.50;4198310;28;20365;-57
2021/12/09 06:24:01;;;;;;;2.33;1.83;;;;;;;17.24;44.66;101703.88;4198292;28;20537;-58
2021/12/09 06:26:05;;;;;;;2.05;1.58;;;;;;;17.10;44.93;101694.09;4198666;28;20122;-57
2021/12/09 06:28:09;;;;;;;3.30;2.00;;;;;;;17.07;44.54;101699.25;4197771;28;20113;-56
2021/12/09 06:30:12;;;;;;;3.55;1.70;;;;;;;17.23;44.55;101732.63;4198590;28;20033;-56
2021/12/09 06:32:14;;;;;;;1.73;1.38;;;;;;;17.22;44.89;101732.84;4198876;28;20044;-57
2021/12/09 06:34:15;;;;;;;1.60;1.50;;;;;;;17.23;44.53;101743.69;4198890;28;20032;-56
2021/12/09 06:36:17;;;;;;;3.08;1.60;;;;;;;17.22;44.81;101746.66;4198481;28;20024;-57
2021/12/09 06:38:18;;;;;;;1.85;1.58;;;;;;;17.20;44.81;101754.38;4192027;28;20091;-57
2021/12/09 06:40:22;;;;;;;2.50;1.70;;;;;;;17.20;44.40;101738.63;4181787;28;20041;-57
2021/12/09 06:42:23;;;;;;;2.85;1.65;;;;;;;17.20;44.73;101741.38;4182096;28;20087;-58
2021/12/09 06:44:25;;;;;;;1.67;1.58;;;;;;;17.20;44.24;101735.84;4183632;28;20486;-56
2021/12/09 06:46:26;;;;;;;2.53;1.73;;;;;;;17.19;44.47;101736.09;4198853;28;20426;-57
2021/12/09 06:48:27;;;;;;;1.63;1.52;;;;;;;17.02;44.30;101722.94;4198510;28;20078;-57
2021/12/09 06:50:29;;;;;;;2.03;1.75;;;;;;;17.16;44.63;101754.00;4198498;28;20032;-57
2021/12/09 06:52:33;;;;;;;2.28;1.75;;;;;;;17.16;44.24;101750.38;4196980;28;20098;-55
2021/12/09 06:54:35;;;;;;;2.13;1.73;;;;;;;17.18;44.19;101760.16;4180188;28;20044;-58
2021/12/09 06:56:36;;;;;;;1.95;1.65;;;;;;;17.19;44.30;101769.28;4181499;28;20033;-55
2021/12/09 06:58:40;;;;;;;2.08;1.50;;;;;;;17.18;44.33;101776.75;4181931;28;20102;-57
2021/12/09 07:00:46;;;;;;;2.00;1.55;;;;;;;17.18;44.03;101770.34;4192484;28;20091;-56
2021/12/09 07:02:48;;;;;;;2.17;1.63;;;;;;;17.03;44.34;101729.28;4198647;28;20110;-57
2021/12/09 07:04:50;;;;;;;2.67;1.70;;;;;;;17.17;44.15;101750.13;4197942;28;20106;-57
2021/12/09 07:06:51;;;;;;;1.50;1.40;;;;;;;17.16;44.15;101748.47;4197790;28;20110;-57
2021/12/09 07:08:53;;;;;;;7.85;1.60;;;;;;;17.14;44.34;101741.50;4197311;28;20040;-56
2021/12/09 07:10:55;;;;;;;2.08;1.52;;;;;;;17.15;43.87;101760.59;4197798;28;20367;-57
2021/12/09 07:12:56;;;;;;;1.42;1.25;;;;;;;17.15;44.01;101771.66;4197898;28;20085;-58
2021/12/09 07:15:00;;;;;;;2.33;1.73;;;;;;;17.14;44.05;101777.44;4197333;28;20814;-55
2021/12/09 07:17:04;;;;;;;2.05;1.60;;;;;;;17.13;44.17;101784.88;4196020;28;20041;-53
2021/12/09 07:19:05;;;;;;;2.25;1.75;;;;;;;17.12;44.04;101777.66;4197803;28;20090;-56
2021/12/09 07:21:08;;;;;;;2.28;1.40;;;;;;;17.11;44.08;101789.81;4197810;28;20048;-56
2021/12/09 07:23:09;;;;;;;2.13;1.42;;;;;;;17.12;44.09;101774.91;4197323;28;20468;-54
2021/12/09 07:25:10;;;;;;;2.30;1.50;;;;;;;17.10;44.04;101774.31;4197308;28;20099;-58
2021/12/09 07:27:15;;;;;;;2.25;1.60;;;;;;;17.03;43.85;101760.56;4197631;28;20094;-58
2021/12/09 07:29:17;;;;;;;1.73;1.60;;;;;;;17.09;44.03;101772.63;4197477;28;20048;-58
2021/12/09 07:31:18;;;;;;;1.58;1.30;;;;;;;17.10;43.69;101774.31;4195779;28;20078;-58
2021/12/09 07:33:22;;;;;;;1.90;1.70;;;;;;;16.93;43.66;101756.69;4198066;28;20066;-55
2021/12/09 07:35:26;;;;;;;1.92;1.80;;;;;;;17.07;43.66;101790.50;4197479;28;20040;-57
2021/12/09 07:37:28;;;;;;;1.63;1.52;;;;;;;17.09;43.84;101805.81;4196464;28;20052;-58
2021/12/09 07:39:29;;;;;;;3.78;1.58;;;;;;;16.91;43.53;101794.78;4196929;28;20106;-57
2021/12/09 07:41:31;;;;;;;2.70;1.77;;;;;;;17.08;43.78;101820.69;4197303;28;20041;-55
2021/12/09 07:43:32;;;;;;;1.90;1.40;;;;;;;17.08;43.66;101841.97;4197540;28;20082;-56
2021/12/09 07:45:34;;;;;;;4.28;1.60;;;;;;;17.07;43.58;101846.66;4197801;28;20434;-58
2021/12/09 07:47:35;;;;;;;1.60;1.50;;;;;;;17.02;43.87;101825.25;4196365;28;20074;-56
2021/12/09 07:49:41;;;;;;;1.27;1.17;;;;;;;17.03;43.61;101815.00;4197237;28;20044;-56
2021/12/09 07:51:42;;;;;;;1.38;1.20;;;;;;;17.07;43.67;101804.34;4197060;28;20045;-55
2021/12/09 07:53:43;;;;;;;1.73;1.52;;;;;;;17.06;43.60;101806.25;4197040;28;20097;-54
2021/12/09 07:55:46;;;;;;;1.20;1.10;;;;;;;17.01;43.76;101815.25;4197069;28;20483;-58
2021/12/09 07:57:50;;;;;;;1.65;1.23;;;;;;;17.05;43.55;101832.25;4197351;28;20040;-60
2021/12/09 07:59:51;;;;;;;3.30;1.58;;;;;;;17.05;43.57;101826.72;4197987;28;20105;-57
2021/12/09 08:01:55;;;;;;;1.45;1.33;;;;;;;17.05;43.54;101820.34;4195949;28;20032;-58
2021/12/09 08:03:58;;;;;;;1.80;1.40;;;;;;;17.00;43.68;101812.75;4197689;28;20045;-57
2021/12/09 08:06:00;;;;;;;2.35;1.40;;;;;;;17.01;43.73;101814.41;4180771;28;20484;-58
2021/12/09 08:08:02;;;;;;;1.88;1.40;;;;;;;16.96;43.63;101805.97;4197011;28;20445;-55
2021/12/09 08:10:05;;;;;;;2.08;1.50;;;;;;;16.85;43.42;101779.09;4197492;28;20044;-56
2021/12/09 08:12:07;;;;;;;1.60;1.30;;;;;;;17.00;43.60;101819.13;4197050;28;20145;-55
2021/12/09 08:14:12;;;;;;;1.33;1.20;;;;;;;16.94;43.67;101833.00;4197215;28;20036;-57
2021/12/09 08:16:13;;;;;;;1.73;1.42;;;;;;;16.99;43.40;101849.75;4197787;28;20041;-56
2021/12/09 08:20:22;;;;;;;2.58;1.17;;;;;;;16.98;43.27;101845.28;4197353;28;20414;-55
2021/12/09 08:22:23;;;;;;;2.83;1.60;;;;;;;16.99;43.55;101844.22;4197659;28;20044;-56
2021/12/09 08:24:24;;;;;;;1.70;1.30;;;;;;;16.99;43.36;101858.03;4197313;28;20138;-55
2021/12/09 08:26:26;;;;;;;2.03;1.48;;;;;;;16.97;43.13;101862.97;4197266;28;20455;-55
2021/12/09 08:28:28;;;;;;;1.65;1.38;;;;;;;16.97;43.21;101874.03;4199293;28;20525;-57
2021/12/09 08:30:29;;;;;;;1.88;1.50;;;;;;;16.86;43.35;101860.97;4198925;28;20105;-55
2021/12/09 08:32:34;;;;;;;1.75;1.65;;;;;;;16.96;43.05;101881.47;4201053;28;20464;-56
2021/12/09 08:34:36;;;;;;;2.42;1.70;;;;;;;16.96;43.32;101878.72;4200685;28;20040;-55
2021/12/09 08:36:37;;;;;;;4.57;1.33;;;;;;;16.95;43.48;101878.91;4200465;28;20356;-55
2021/12/09 08:38:38;;;;;;;1.48;1.20;;;;;;;16.95;43.46;101885.31;4200437;28;20036;-58
2021/12/09 08:40:42;;;;;;;1.25;1.13;;;;;;;16.85;43.02;101876.72;4200422;28;20041;-56
2021/12/09 08:42:47;;;;;;;1.55;1.38;;;;;;;16.92;43.25;101876.66;4200659;28;20484;-56
2021/12/09 08:44:48;;;;;;;1.30;1.20;;;;;;;16.94;42.92;101882.78;4200731;28;20037;-58
2021/12/09 08:46:50;;;;;;;2.15;1.23;;;;;;;16.89;43.33;101872.41;4197855;28;20691;-56
2021/12/09 08:48:53;;;;;;;3.28;1.30;;;;;;;16.92;43.07;101877.47;4200270;28;20036;-56
2021/12/09 08:50:55;;;;;;;1.65;1.23;;;;;;;16.90;43.26;101898.13;4200473;28;20040;-56
2021/12/09 08:52:56;;;;;;;1.80;1.30;;;;;;;16.91;43.03;101906.22;4200171;28;20495;-55
2021/12/09 08:54:58;;;;;;;1.63;1.25;;;;;;;16.90;43.23;101911.94;4200655;28;20102;-58
2021/12/09 08:56:59;;;;;;;1.48;1.27;;;;;;;16.88;43.03;101900.28;4199859;28;20106;-58
2021/12/09 08:59:03;;;;;;;1.88;1.40;;;;;;;16.80;43.21;101890.38;4200372;28;20094;-53
2021/12/09 09:01:11;;;;;;;1.50;1.40;;;;;;;16.88;42.98;101914.13;4200380;28;20032;-55
2021/12/09 09:03:14;;;;;;;1.48;1.20;;;;;;;16.84;43.16;101894.38;4200319;28;20045;-56
2021/12/09 09:05:15;;;;;;;1.40;1.30;;;;;;;16.86;43.16;101906.06;4199976;28;20040;-56
2021/12/09 09:07:17;;;;;;;1.27;1.17;;;;;;;16.80;42.71;101909.72;4199574;28;20070;-57
2021/12/09 09:09:19;;;;;;;1.50;1.10;;;;;;;16.87;42.90;101931.78;4200021;28;20025;-55
2021/12/09 09:11:20;;;;;;;1.63;1.20;;;;;;;16.82;43.21;101915.06;4200076;28;20411;-57
2021/12/09 09:13:23;;;;;;;1.67;1.42;;;;;;;16.86;42.87;101938.38;4199119;28;20475;-55
2021/12/09 09:15:26;;;;;;;2.33;1.50;;;;;;;16.85;43.05;101944.97;4199967;28;20105;-56
2021/12/09 09:17:28;;;;;;;1.40;1.20;;;;;;;16.86;43.00;101941.13;4199647;28;20062;-58
2021/12/09 09:19:29;;;;;;;1.52;1.35;;;;;;;16.84;42.90;101946.91;4199756;28;20110;-57
2021/12/09 09:21:31;;;;;;;2.13;1.02;;;;;;;16.84;43.02;101946.91;4200054;28;20041;-54
2021/12/09 09:23:34;;;;;;;2.05;1.75;;;;;;;16.83;42.77;101955.44;4199906;28;20477;-56
2021/12/09 09:25:36;;;;;;;1.38;1.25;;;;;;;16.83;43.03;101941.59;4198653;28;20549;-56
2021/12/09 09:27:37;;;;;;;1.48;1.10;;;;;;;16.83;42.92;101938.84;4199323;28;20044;-55
2021/12/09 09:29:44;;;;;;;1.35;1.23;;;;;;;16.79;42.93;101934.84;4199576;28;20033;-56
2021/12/09 09:31:47;;;;;;;1.60;1.48;;;;;;;16.80;43.01;101944.81;4199479;28;20040;-56